createdAt,value
2022-08-29T00:01:12.069Z,43.50
2022-08-29T00:06:22.643Z,43.50
2022-08-29T00:11:32.993Z,43.50
2022-08-29T00:16:49.978Z,43.50
2022-08-29T00:22:06.968Z,43.50
2022-08-29T00:27:24.047Z,43.50
2022-08-29T00:32:41.172Z,43.50
2022-08-29T00:37:57.850Z,43.40
2022-08-29T00:43:15.187Z,43.70
2022-08-29T00:48:31.881Z,43.50
2022-08-29T00:53:48.713Z,43.40
2022-08-29T00:59:05.944Z,43.40
2022-08-29T01:04:23.729Z,43.50
2022-08-29T01:09:40.734Z,43.60
2022-08-29T01:14:57.974Z,43.60
2022-08-29T01:20:09.015Z,43.60
2022-08-29T01:25:19.678Z,43.60
2022-08-29T01:30:30.667Z,43.70
2022-08-29T01:35:41.379Z,43.50
2022-08-29T01:40:51.883Z,43.50
2022-08-29T01:46:02.606Z,43.60
2022-08-29T01:51:13.337Z,43.50
2022-08-29T01:56:24.103Z,43.60
2022-08-29T02:01:34.802Z,43.50
2022-08-29T02:06:45.136Z,43.50
2022-08-29T02:11:55.682Z,43.60
2022-08-29T02:17:06.279Z,43.20
2022-08-29T02:22:16.741Z,43.30
2022-08-29T02:27:27.314Z,43.40
2022-08-29T02:32:37.814Z,43.40
2022-08-29T02:37:49.362Z,43.40
2022-08-29T02:43:00.204Z,43.50
2022-08-29T02:48:10.741Z,43.50
2022-08-29T02:53:21.323Z,44.10
2022-08-29T02:58:31.944Z,43.40
2022-08-29T03:03:42.289Z,43.50
2022-08-29T03:08:54.079Z,43.40
2022-08-29T03:14:04.932Z,43.30
2022-08-29T03:19:15.721Z,43.40
2022-08-29T03:24:27.216Z,43.30
2022-08-29T03:29:37.766Z,43.20
2022-08-29T03:34:54.747Z,43.50
2022-08-29T03:40:11.715Z,43.40
2022-08-29T03:45:29.015Z,43.30
2022-08-29T03:50:46.061Z,43.50
2022-08-29T03:56:02.852Z,43.40
2022-08-29T04:01:19.762Z,43.50
2022-08-29T04:06:36.799Z,43.60
2022-08-29T04:11:54.026Z,43.40
2022-08-29T04:17:10.627Z,43.40
2022-08-29T04:22:27.715Z,43.40
2022-08-29T04:27:44.598Z,43.50
2022-08-29T04:33:01.809Z,43.50
2022-08-29T04:38:12.212Z,43.40
2022-08-29T04:43:22.667Z,43.50
2022-08-29T04:46:04.329Z,43.40
2022-08-29T04:48:30.889Z,43.40
2022-08-29T04:53:41.344Z,43.60
2022-08-29T04:58:51.799Z,43.40
2022-08-29T05:04:02.183Z,43.60
2022-08-29T05:09:12.611Z,43.50
2022-08-29T05:14:23.340Z,43.60
2022-08-29T05:19:34.608Z,43.40
2022-08-29T05:24:46.172Z,43.50
2022-08-29T05:29:56.574Z,43.70
2022-08-29T05:35:07.217Z,43.70
2022-08-29T05:40:17.858Z,43.60
2022-08-29T05:45:28.279Z,43.50
2022-08-29T05:50:38.834Z,43.70
2022-08-29T05:55:49.130Z,43.70
2022-08-29T06:00:59.836Z,43.70
2022-08-29T06:06:13.099Z,43.60
2022-08-29T06:11:23.534Z,43.80
2022-08-29T06:16:33.961Z,43.80
2022-08-29T06:21:50.771Z,43.70
2022-08-29T06:27:07.430Z,43.70
2022-08-29T06:32:24.568Z,43.80
2022-08-29T06:37:41.570Z,43.70
2022-08-29T06:42:58.630Z,43.70
2022-08-29T06:48:15.659Z,43.70
2022-08-29T06:53:33.100Z,43.60
2022-08-29T06:58:53.540Z,43.80
2022-08-29T07:04:12.820Z,43.60
2022-08-29T07:09:25.312Z,43.60
2022-08-29T07:14:35.806Z,43.70
2022-08-29T07:19:46.213Z,43.70
2022-08-29T07:24:56.697Z,43.90
2022-08-29T07:30:07.011Z,44.60
2022-08-29T07:35:18.606Z,43.90
2022-08-29T07:40:39.699Z,44.00
2022-08-29T07:45:50.433Z,44.00
2022-08-29T07:51:00.828Z,44.00
2022-08-29T07:56:11.230Z,44.80
2022-08-29T08:01:21.996Z,44.00
2022-08-29T08:06:32.496Z,44.10
2022-08-29T08:11:44.806Z,44.00
2022-08-29T08:16:55.234Z,44.20
2022-08-29T08:22:06.026Z,44.20
2022-08-29T08:27:16.566Z,44.20
2022-08-29T08:32:32.374Z,44.40
2022-08-29T08:37:43.654Z,44.40
2022-08-29T08:43:00.396Z,44.30
2022-08-29T08:48:17.588Z,44.20
2022-08-29T08:53:34.489Z,44.30
2022-08-29T08:58:51.517Z,44.40
2022-08-29T09:04:08.323Z,44.50
2022-08-29T09:09:25.676Z,44.50
2022-08-29T09:14:42.462Z,44.50
2022-08-29T09:19:59.562Z,44.50
2022-08-29T09:25:16.318Z,44.60
2022-08-29T09:30:26.973Z,44.60
2022-08-29T09:35:37.620Z,44.60
2022-08-29T09:40:48.067Z,44.60
2022-08-29T09:45:58.641Z,44.60
2022-08-29T09:51:09.447Z,44.60
2022-08-29T09:56:19.864Z,44.60
2022-08-29T10:01:30.630Z,44.60
2022-08-29T10:06:46.091Z,44.60
2022-08-29T10:11:58.179Z,44.60
2022-08-29T10:17:08.872Z,44.80
2022-08-29T10:27:34.739Z,44.60
2022-08-29T10:32:45.361Z,44.80
2022-08-29T10:38:02.324Z,44.70
2022-08-29T10:43:19.502Z,44.60
2022-08-29T10:48:36.423Z,44.70
2022-08-29T10:53:53.438Z,44.70
2022-08-29T10:59:10.203Z,44.70
2022-08-29T11:04:27.305Z,44.70
2022-08-29T11:09:44.450Z,44.80
2022-08-29T11:15:01.345Z,44.90
2022-08-29T11:20:18.206Z,44.80
2022-08-29T11:25:35.205Z,44.90
2022-08-29T11:30:48.133Z,44.80
2022-08-29T11:36:03.786Z,44.90
2022-08-29T11:41:31.035Z,44.90
2022-08-29T11:46:41.636Z,44.90
2022-08-29T11:51:52.069Z,45.00
2022-08-29T11:57:02.804Z,45.00
2022-08-29T12:02:13.234Z,44.90
2022-08-29T12:07:23.735Z,44.90
2022-08-29T12:12:34.063Z,44.90
2022-08-29T12:18:01.936Z,44.80
2022-08-29T12:23:19.252Z,44.80
2022-08-29T12:28:36.226Z,44.80
2022-08-29T12:33:53.479Z,44.70
2022-08-29T12:39:10.131Z,44.60
2022-08-29T12:44:27.227Z,44.60
2022-08-29T12:49:44.292Z,44.60
2022-08-29T12:55:01.643Z,44.70
2022-08-29T13:00:18.578Z,44.60
2022-08-29T13:05:35.730Z,44.70
2022-08-29T13:10:46.166Z,44.60
2022-08-29T13:15:56.854Z,44.80
2022-08-29T13:21:07.321Z,44.70
2022-08-29T13:26:17.961Z,44.70
2022-08-29T13:31:28.858Z,44.80
2022-08-29T13:36:39.652Z,44.90
2022-08-29T13:41:50.089Z,44.70
2022-08-29T13:47:00.866Z,44.80
2022-08-29T13:52:11.264Z,45.00
2022-08-29T13:57:21.592Z,44.90
2022-08-29T14:02:32.054Z,44.70
2022-08-29T14:07:42.716Z,44.90
2022-08-29T14:12:53.044Z,44.90
2022-08-29T14:18:03.499Z,44.90
2022-08-29T14:23:23.141Z,45.00
2022-08-29T14:28:42.132Z,44.90
2022-08-29T14:34:02.343Z,44.70
2022-08-29T14:39:20.084Z,44.60
2022-08-29T14:44:43.271Z,44.50
2022-08-29T14:50:00.128Z,44.60
2022-08-29T14:55:17.438Z,44.50
2022-08-29T15:00:34.398Z,44.50
2022-08-29T15:05:44.780Z,44.50
2022-08-29T15:10:59.235Z,44.40
2022-08-29T15:16:09.893Z,44.50
2022-08-29T15:21:20.795Z,44.50
2022-08-29T15:26:31.391Z,44.50
2022-08-29T15:31:41.811Z,44.50
2022-08-29T15:36:52.547Z,44.50
2022-08-29T15:42:02.932Z,44.60
2022-08-29T15:47:13.377Z,44.60
2022-08-29T15:52:24.754Z,44.60
2022-08-29T15:57:42.391Z,44.60
2022-08-29T16:03:09.205Z,44.60
2022-08-29T16:08:29.626Z,44.60
2022-08-29T16:13:47.289Z,44.70
2022-08-29T16:19:04.389Z,44.60
2022-08-29T16:24:21.319Z,44.80
2022-08-29T16:29:38.242Z,44.80
2022-08-29T16:34:48.591Z,44.90
2022-08-29T16:39:59.380Z,44.90
2022-08-29T16:45:10.141Z,45.00
2022-08-29T16:50:20.792Z,45.00
2022-08-29T16:55:31.159Z,45.00
2022-08-29T17:00:41.716Z,45.00
2022-08-29T17:05:52.068Z,45.00
2022-08-29T17:11:02.483Z,45.10
2022-08-29T17:16:12.980Z,45.10
2022-08-29T17:21:23.655Z,45.10
2022-08-29T17:26:34.300Z,45.20
2022-08-29T17:31:45.027Z,45.20
2022-08-29T17:36:55.630Z,45.30
2022-08-29T17:42:05.930Z,45.40
2022-08-29T17:47:16.333Z,45.50
2022-08-29T17:52:26.793Z,45.60
2022-08-29T17:57:44.093Z,45.60
2022-08-29T18:03:01.412Z,45.60
2022-08-29T18:08:18.142Z,45.60
2022-08-29T18:13:34.969Z,45.60
2022-08-29T18:18:52.179Z,45.60
2022-08-29T18:24:09.191Z,45.50
2022-08-29T18:29:26.167Z,45.50
2022-08-29T18:34:42.924Z,45.50
2022-08-29T18:39:53.606Z,45.60
2022-08-29T18:45:04.039Z,45.60
2022-08-29T18:50:14.408Z,45.80
2022-08-29T18:55:24.975Z,45.80
2022-08-29T19:00:35.793Z,45.80
2022-08-29T19:05:46.287Z,45.70
2022-08-29T19:10:56.839Z,45.70
2022-08-29T19:16:07.535Z,45.80
2022-08-29T19:21:18.329Z,46.00
2022-08-29T19:26:28.775Z,46.00
2022-08-29T19:31:39.282Z,46.10
2022-08-29T19:36:49.730Z,46.20
2022-08-29T19:42:01.878Z,46.30
2022-08-29T19:47:12.470Z,46.30
2022-08-29T19:52:23.232Z,46.40
2022-08-29T19:57:34.605Z,46.40
2022-08-29T20:02:45.958Z,46.30
2022-08-29T20:07:56.432Z,46.40
2022-08-29T20:13:12.914Z,46.40
2022-08-29T20:18:29.835Z,46.40
2022-08-29T20:23:49.551Z,46.50
2022-08-29T20:29:07.960Z,46.50
2022-08-29T20:34:24.836Z,46.40
2022-08-29T20:39:41.959Z,46.50
2022-08-29T20:44:59.040Z,46.50
2022-08-29T20:50:16.111Z,46.50
2022-08-29T20:55:26.626Z,46.50
2022-08-29T21:00:37.456Z,46.40
2022-08-29T21:05:48.210Z,46.40
2022-08-29T21:10:58.774Z,46.40
2022-08-29T21:16:09.279Z,46.40
2022-08-29T21:21:22.991Z,46.40
2022-08-29T21:26:35.230Z,46.50
2022-08-29T21:31:45.714Z,46.50
2022-08-29T21:36:56.197Z,46.50
2022-08-29T21:42:06.646Z,46.40
2022-08-29T21:47:18.089Z,46.40
2022-08-29T21:52:28.863Z,46.50
2022-08-29T21:57:39.381Z,46.40
2022-08-29T22:02:50.137Z,46.50
2022-08-29T22:08:00.776Z,46.40
2022-08-29T22:13:11.138Z,46.50
2022-08-29T22:18:21.778Z,46.40
2022-08-29T22:23:32.201Z,46.30
2022-08-29T22:28:42.625Z,46.40
2022-08-29T22:33:53.047Z,46.40
2022-08-29T22:39:03.498Z,46.40
2022-08-29T22:44:59.981Z,46.30
2022-08-29T22:49:44.778Z,46.30
2022-08-29T22:54:55.159Z,46.30
2022-08-29T23:00:05.655Z,46.50
2022-08-29T23:05:16.178Z,46.30
2022-08-29T23:10:26.462Z,46.20
2022-08-29T23:15:37.219Z,46.20
2022-08-29T23:20:53.795Z,46.20
2022-08-29T23:26:10.753Z,46.30
2022-08-29T23:31:27.975Z,46.30
2022-08-29T23:36:44.668Z,46.30
2022-08-29T23:42:02.021Z,46.40
2022-08-29T23:47:19.051Z,46.50
2022-08-29T23:52:35.680Z,46.60
2022-08-29T23:57:52.763Z,46.50
